Time;durP1;ratioP1;P1;durP2;ratioP2;P2;SDS_P1;SDS_P2;PMS_P1;PMS_P2;Temp;Humidity;BMP_temperature;BMP_pressure;BME280_temperature;BME280_humidity;BME280_pressure;Samples;Min_cycle;Max_cycle;Signal;HPM_P1;HPM_P2
2023/10/02 00:01:47;;;;;;;14.55;7.95;;;17.70;99.90;;;;;;5051720;28;20045;-76
2023/10/02 00:04:16;;;;;;;15.73;8.98;;;17.60;99.90;;;;;;5052025;28;20040;-77
2023/10/02 00:06:43;;;;;;;17.90;8.40;;;17.60;99.90;;;;;;5051895;28;20099;-77
2023/10/02 00:09:08;;;;;;;16.48;9.38;;;17.60;99.90;;;;;;5051359;28;20049;-77
2023/10/02 00:11:38;;;;;;;17.30;8.50;;;17.50;99.90;;;;;;5051856;28;20048;-77
2023/10/02 00:14:19;;;;;;;18.80;8.63;;;17.50;99.90;;;;;;5052096;28;20059;-77
2023/10/02 00:16:58;;;;;;;17.23;9.07;;;17.50;99.90;;;;;;5051165;28;20094;-76
2023/10/02 00:19:27;;;;;;;16.90;8.82;;;17.50;99.90;;;;;;5051368;28;20045;-77
2023/10/02 00:21:57;;;;;;;16.42;9.30;;;17.50;99.90;;;;;;5051722;28;20056;-77
2023/10/02 00:24:26;;;;;;;20.02;10.07;;;17.40;99.90;;;;;;5051612;28;20107;-76
2023/10/02 00:26:57;;;;;;;19.75;9.32;;;17.40;99.90;;;;;;5051734;28;20385;-77
2023/10/02 00:29:24;;;;;;;17.83;9.55;;;17.40;99.90;;;;;;5050908;28;20128;-77
2023/10/02 00:31:50;;;;;;;18.92;9.63;;;17.50;99.90;;;;;;5051348;28;20045;-77
2023/10/02 00:34:16;;;;;;;20.90;10.45;;;17.50;99.90;;;;;;5051240;28;20364;-77
2023/10/02 00:36:42;;;;;;;22.65;11.27;;;17.50;99.90;;;;;;5051502;28;20094;-77
2023/10/02 00:39:30;;;;;;;19.48;10.23;;;17.50;99.90;;;;;;5034445;28;20086;-76
2023/10/02 00:42:16;;;;;;;22.25;10.23;;;17.50;99.90;;;;;;5051211;28;20036;-76
2023/10/02 00:44:52;;;;;;;19.67;10.80;;;17.50;99.90;;;;;;5051016;28;20045;-77
2023/10/02 00:47:36;;;;;;;18.48;11.30;;;17.40;99.90;;;;;;5051150;28;20091;-76
2023/10/02 00:50:10;;;;;;;23.00;11.57;;;17.40;99.90;;;;;;5033678;28;20041;-77
2023/10/02 00:52:45;;;;;;;23.15;11.95;;;17.40;99.90;;;;;;5034538;28;20036;-76
2023/10/02 00:55:14;;;;;;;19.40;10.35;;;17.30;99.90;;;;;;5050517;28;20037;-77
2023/10/02 00:57:41;;;;;;;20.67;12.27;;;17.30;99.90;;;;;;5050856;28;20349;-77
2023/10/02 01:00:30;;;;;;;23.33;11.45;;;17.30;99.90;;;;;;5050633;28;20033;-77
2023/10/02 01:02:57;;;;;;;23.13;11.23;;;17.20;99.90;;;;;;5051079;28;20041;-77
2023/10/02 01:05:41;;;;;;;20.80;11.13;;;17.20;99.90;;;;;;5050540;28;20064;-76
2023/10/02 01:08:25;;;;;;;21.00;11.80;;;17.10;99.90;;;;;;5050443;28;20118;-76
2023/10/02 01:10:56;;;;;;;22.88;12.18;;;17.00;99.90;;;;;;5050552;28;20111;-76
2023/10/02 01:13:32;;;;;;;23.33;12.43;;;17.00;99.90;;;;;;5050613;28;20509;-77
2023/10/02 01:16:00;;;;;;;23.90;11.50;;;16.90;99.90;;;;;;5050226;28;20128;-76
2023/10/02 01:18:29;;;;;;;19.33;11.57;;;17.00;99.90;;;;;;5050058;28;20108;-77
2023/10/02 01:20:59;;;;;;;24.40;12.68;;;16.90;99.90;;;;;;5050858;28;20041;-77
2023/10/02 01:23:31;;;;;;;20.38;11.80;;;17.00;99.90;;;;;;5050280;28;20040;-77
2023/10/02 01:25:57;;;;;;;20.30;11.18;;;16.90;99.90;;;;;;5050630;28;20445;-77
2023/10/02 01:28:54;;;;;;;19.23;10.65;;;16.90;99.90;;;;;;5049605;28;20051;-76
2023/10/02 01:31:36;;;;;;;19.50;11.10;;;16.90;99.90;;;;;;5050253;28;20045;-77
2023/10/02 01:34:03;;;;;;;24.75;12.27;;;16.90;99.90;;;;;;5050065;28;20041;-77
2023/10/02 01:36:31;;;;;;;20.88;11.43;;;16.90;99.90;;;;;;5048972;28;20389;-77
2023/10/02 01:39:15;;;;;;;21.42;11.93;;;16.90;99.90;;;;;;5033049;28;20084;-76
2023/10/02 01:41:45;;;;;;;20.95;11.27;;;16.90;99.90;;;;;;5050428;28;20041;-77
2023/10/02 01:44:20;;;;;;;21.03;12.03;;;16.90;99.90;;;;;;5033487;28;20047;-77
2023/10/02 01:46:49;;;;;;;20.13;11.00;;;16.90;99.90;;;;;;5049751;28;20365;-77
2023/10/02 01:49:24;;;;;;;20.48;11.40;;;17.00;99.90;;;;;;5049430;28;20419;-76
2023/10/02 01:51:57;;;;;;;20.73;11.85;;;17.00;99.90;;;;;;5032251;28;20041;-77
2023/10/02 01:54:25;;;;;;;20.42;11.23;;;16.90;99.90;;;;;;5048267;28;20037;-77
2023/10/02 01:56:52;;;;;;;19.38;11.55;;;16.90;99.90;;;;;;5049717;28;20033;-77
2023/10/02 01:59:19;;;;;;;23.02;12.60;;;16.90;99.90;;;;;;5049200;28;20076;-77
2023/10/02 02:01:54;;;;;;;24.88;12.45;;;16.80;99.90;;;;;;5032765;28;20068;-75
2023/10/02 02:04:32;;;;;;;24.10;12.20;;;16.80;99.90;;;;;;5033492;28;20070;-76
2023/10/02 02:07:00;;;;;;;21.23;11.93;;;16.80;99.90;;;;;;5050063;28;20052;-77
2023/10/02 02:09:37;;;;;;;25.55;11.93;;;16.80;99.90;;;;;;5049488;28;20036;-76
2023/10/02 02:12:13;;;;;;;28.42;12.75;;;16.80;99.90;;;;;;5049782;28;20095;-77
2023/10/02 02:14:52;;;;;;;23.15;12.23;;;16.80;99.90;;;;;;5049688;28;20417;-76
2023/10/02 02:17:27;;;;;;;22.90;12.25;;;16.80;99.90;;;;;;5049424;28;20041;-77
2023/10/02 02:19:59;;;;;;;23.80;11.93;;;16.80;99.90;;;;;;5049797;28;20041;-77
2023/10/02 02:22:26;;;;;;;23.80;12.77;;;16.80;99.90;;;;;;5049275;28;20045;-77
2023/10/02 02:25:00;;;;;;;21.42;11.57;;;16.70;99.90;;;;;;5048238;28;20052;-77
2023/10/02 02:27:25;;;;;;;21.08;11.73;;;16.70;99.90;;;;;;5033088;28;20048;-77
2023/10/02 02:29:54;;;;;;;23.90;12.63;;;16.60;99.90;;;;;;5032977;28;20045;-77
2023/10/02 02:32:36;;;;;;;25.20;12.63;;;16.60;99.90;;;;;;5049465;28;20044;-77
2023/10/02 02:35:06;;;;;;;22.90;11.15;;;16.60;99.90;;;;;;5049441;28;20081;-77
2023/10/02 02:37:32;;;;;;;24.00;13.50;;;16.50;99.90;;;;;;5049447;28;20137;-76
2023/10/02 02:40:22;;;;;;;21.05;12.15;;;16.50;99.90;;;;;;5049030;28;20034;-77
2023/10/02 02:42:45;;;;;;;21.00;11.77;;;16.50;99.90;;;;;;5048939;28;20056;-76
2023/10/02 02:45:28;;;;;;;23.17;12.80;;;16.50;99.90;;;;;;5032709;28;20076;-77
2023/10/02 02:47:57;;;;;;;23.83;12.43;;;16.50;99.90;;;;;;5049246;28;20041;-76
2023/10/02 02:50:28;;;;;;;22.45;12.82;;;16.50;99.90;;;;;;5049252;28;20051;-77
2023/10/02 02:56:10;;;;;;;24.23;12.50;;;16.50;99.90;;;;;;5029425;28;20049;-77
2023/10/02 02:58:38;;;;;;;23.02;12.80;;;16.50;99.90;;;;;;5014250;28;20171;-77
2023/10/02 03:01:06;;;;;;;24.67;12.98;;;16.50;99.90;;;;;;5043156;28;20076;-77
2023/10/02 03:03:34;;;;;;;23.27;12.73;;;16.50;99.90;;;;;;5036445;28;20555;-76
2023/10/02 03:06:00;;;;;;;22.55;12.45;;;16.50;99.90;;;;;;5052872;28;20029;-76
2023/10/02 03:08:37;;;;;;;24.00;12.95;;;16.50;99.90;;;;;;5052541;28;20103;-77
2023/10/02 03:11:06;;;;;;;23.45;12.35;;;16.50;99.90;;;;;;5052905;28;20043;-77
2023/10/02 03:13:35;;;;;;;23.48;13.52;;;16.50;99.90;;;;;;5036434;28;20110;-76
2023/10/02 03:16:12;;;;;;;25.48;13.25;;;16.50;99.90;;;;;;5036041;28;20041;-77
2023/10/02 03:18:43;;;;;;;22.90;12.60;;;16.50;99.90;;;;;;5052352;28;20587;-77
2023/10/02 03:21:15;;;;;;;26.10;13.25;;;16.50;99.90;;;;;;5052850;28;20041;-76
2023/10/02 03:23:42;;;;;;;23.10;12.30;;;16.50;99.90;;;;;;5052494;28;20037;-76
2023/10/02 03:26:26;;;;;;;22.27;12.85;;;16.50;99.90;;;;;;5052415;28;20037;-77
2023/10/02 03:29:02;;;;;;;20.80;11.90;;;16.40;99.90;;;;;;5052254;28;20076;-77
2023/10/02 03:31:43;;;;;;;21.42;12.80;;;16.40;99.90;;;;;;5052620;28;20083;-77
2023/10/02 03:34:27;;;;;;;23.08;12.75;;;16.30;99.90;;;;;;5035794;28;20043;-77
2023/10/02 03:36:59;;;;;;;24.00;13.23;;;16.30;99.90;;;;;;5052486;28;20127;-76
2023/10/02 03:42:21;;;;;;;23.98;13.23;;;16.30;99.90;;;;;;5052266;28;20041;-77
2023/10/02 03:44:51;;;;;;;26.02;13.65;;;16.30;99.90;;;;;;5052132;28;20041;-77
2023/10/02 03:47:18;;;;;;;25.20;13.00;;;16.20;99.90;;;;;;5051943;28;20040;-77
2023/10/02 03:49:43;;;;;;;26.50;13.77;;;16.20;99.90;;;;;;5051901;28;20037;-77
2023/10/02 03:52:10;;;;;;;22.95;12.63;;;16.20;99.90;;;;;;5052055;28;20048;-77
2023/10/02 03:54:35;;;;;;;23.02;13.02;;;16.20;99.90;;;;;;5051980;28;20040;-77
2023/10/02 03:57:02;;;;;;;22.10;13.30;;;16.20;99.90;;;;;;5052253;28;20044;-77
2023/10/02 03:59:32;;;;;;;24.38;12.82;;;16.30;99.90;;;;;;5052025;28;20098;-77
2023/10/02 04:02:24;;;;;;;24.98;13.65;;;16.30;99.90;;;;;;5051346;28;20446;-77
2023/10/02 04:04:46;;;;;;;22.40;12.68;;;16.30;99.90;;;;;;5051146;28;20085;-77
2023/10/02 04:07:12;;;;;;;24.48;13.27;;;16.30;99.90;;;;;;5035256;28;20047;-77
2023/10/02 04:09:38;;;;;;;24.65;13.85;;;16.30;99.90;;;;;;5051504;28;20047;-77
2023/10/02 04:12:07;;;;;;;26.95;13.63;;;16.20;99.90;;;;;;5051380;28;20041;-77
2023/10/02 04:14:33;;;;;;;25.75;13.23;;;16.20;99.90;;;;;;5051663;28;20122;-76
2023/10/02 04:17:20;;;;;;;25.67;14.10;;;16.20;99.90;;;;;;5051636;28;20117;-77
2023/10/02 04:19:49;;;;;;;25.65;14.00;;;16.20;99.90;;;;;;5051386;28;20171;-76
2023/10/02 04:22:19;;;;;;;25.52;14.10;;;16.20;99.90;;;;;;5051499;28;20162;-76
2023/10/02 04:25:06;;;;;;;26.67;14.05;;;16.10;99.90;;;;;;5051827;28;20482;-77
2023/10/02 04:32:42;;;;;;;24.65;13.82;;;16.20;99.90;;;;;;5051482;28;20049;-76
2023/10/02 04:35:44;;;;;;;24.45;13.43;;;16.10;99.90;;;;;;5051300;28;20086;-77
2023/10/02 04:37:58;;;;;;;26.45;13.82;;;16.00;99.90;;;;;;5051126;28;20132;-77
2023/10/02 04:43:19;;;;;;;23.60;13.85;;;15.90;99.90;;;;;;5051079;28;20040;-77
2023/10/02 04:45:52;;;;;;;30.05;14.75;;;16.00;99.90;;;;;;5051226;28;20132;-77
2023/10/02 04:48:25;;;;;;;28.60;13.67;;;16.10;99.90;;;;;;5050628;28;20077;-77
2023/10/02 04:50:53;;;;;;;22.60;13.68;;;16.00;99.90;;;;;;5051044;28;20291;-77
2023/10/02 04:53:22;;;;;;;22.88;13.30;;;16.10;99.90;;;;;;5050755;28;20530;-77
2023/10/02 04:55:49;;;;;;;22.98;14.15;;;16.00;99.90;;;;;;5034254;28;20132;-77
2023/10/02 04:58:19;;;;;;;22.83;13.07;;;16.00;99.90;;;;;;5050488;28;20048;-77
2023/10/02 05:03:32;;;;;;;27.90;15.40;;;16.10;99.90;;;;;;5050634;28;20051;-77
2023/10/02 05:05:59;;;;;;;25.58;13.15;;;16.00;99.90;;;;;;5050866;28;20508;-76
2023/10/02 05:08:35;;;;;;;24.92;13.45;;;16.00;99.90;;;;;;5050180;28;20068;-77
2023/10/02 05:11:08;;;;;;;26.30;14.68;;;16.00;99.90;;;;;;5049848;28;20037;-77
2023/10/02 05:13:59;;;;;;;23.13;13.30;;;16.00;99.90;;;;;;5050709;28;20404;-76
2023/10/02 05:16:40;;;;;;;24.65;14.50;;;16.00;99.90;;;;;;5050587;28;20037;-76
2023/10/02 05:19:07;;;;;;;24.73;14.75;;;16.00;99.90;;;;;;5050259;28;20094;-78
2023/10/02 05:21:46;;;;;;;29.42;15.38;;;16.00;99.90;;;;;;5033875;28;20511;-77
2023/10/02 05:24:12;;;;;;;23.98;13.95;;;15.90;99.90;;;;;;5051079;28;20115;-77
2023/10/02 05:26:43;;;;;;;25.10;14.10;;;15.90;99.90;;;;;;5050893;28;20068;-78
2023/10/02 05:29:35;;;;;;;26.92;14.15;;;15.90;99.90;;;;;;5050380;28;20045;-77
2023/10/02 05:32:16;;;;;;;24.02;13.60;;;15.80;99.90;;;;;;5034040;28;20037;-77
2023/10/02 05:34:58;;;;;;;23.60;13.82;;;15.80;99.90;;;;;;5049614;28;20053;-77
2023/10/02 05:37:30;;;;;;;20.20;12.38;;;15.80;99.90;;;;;;5032813;28;20143;-77
2023/10/02 05:42:46;;;;;;;26.00;13.73;;;15.80;99.90;;;;;;5050464;28;20075;-77
2023/10/02 05:45:17;;;;;;;26.40;14.18;;;15.80;99.90;;;;;;5049413;28;20063;-78
2023/10/02 05:47:46;;;;;;;22.83;13.10;;;15.80;99.90;;;;;;5050495;28;20045;-77
2023/10/02 05:50:11;;;;;;;28.05;13.70;;;15.70;99.90;;;;;;5050109;28;20126;-77
2023/10/02 05:52:37;;;;;;;26.52;14.85;;;15.70;99.90;;;;;;5050085;28;20485;-78
2023/10/02 05:55:09;;;;;;;27.88;15.63;;;15.70;99.90;;;;;;5049271;28;20037;-77
2023/10/02 05:57:36;;;;;;;25.02;15.15;;;15.70;99.90;;;;;;5050467;28;20519;-78
2023/10/02 06:00:06;;;;;;;25.45;14.55;;;15.70;99.90;;;;;;5050160;28;20048;-77
2023/10/02 06:02:32;;;;;;;27.55;14.07;;;15.80;99.90;;;;;;5034419;28;20040;-77
2023/10/02 06:05:07;;;;;;;26.25;13.77;;;15.80;99.90;;;;;;5050576;28;20116;-77
2023/10/02 06:07:46;;;;;;;25.98;14.27;;;15.80;99.90;;;;;;5050310;28;20088;-77
2023/10/02 06:10:27;;;;;;;25.05;14.57;;;15.90;99.90;;;;;;5049794;28;20052;-77
2023/10/02 06:13:03;;;;;;;27.55;14.68;;;15.90;99.90;;;;;;5049949;28;20037;-77
2023/10/02 06:15:46;;;;;;;26.08;14.20;;;16.00;99.90;;;;;;5050224;28;20072;-78
2023/10/02 06:18:24;;;;;;;26.65;13.95;;;16.00;99.90;;;;;;5050464;28;20053;-77
2023/10/02 06:20:58;;;;;;;26.45;14.73;;;16.00;99.90;;;;;;5050408;28;20043;-76
2023/10/02 06:23:24;;;;;;;27.75;14.20;;;16.10;99.90;;;;;;5050373;28;20087;-77
2023/10/02 06:25:52;;;;;;;24.20;14.18;;;16.10;99.90;;;;;;5050167;28;20519;-77
2023/10/02 06:28:27;;;;;;;25.85;14.20;;;16.10;99.90;;;;;;5033336;28;20120;-77
2023/10/02 06:30:54;;;;;;;26.40;14.10;;;16.20;99.90;;;;;;5033549;28;20041;-77
2023/10/02 06:33:23;;;;;;;22.55;13.50;;;16.20;99.90;;;;;;5050318;28;20037;-77
2023/10/02 06:36:00;;;;;;;22.95;14.07;;;16.20;99.90;;;;;;5053071;28;20475;-77
2023/10/02 06:38:29;;;;;;;22.33;13.30;;;16.20;99.90;;;;;;5054018;28;20041;-77
2023/10/02 06:40:56;;;;;;;25.17;13.70;;;16.30;99.90;;;;;;5055478;28;20045;-77
2023/10/02 06:43:29;;;;;;;23.65;14.25;;;16.30;99.90;;;;;;5054592;28;20526;-78
2023/10/02 06:46:06;;;;;;;27.25;14.32;;;16.30;99.90;;;;;;5054022;28;20044;-77
2023/10/02 06:48:39;;;;;;;27.30;13.98;;;16.40;99.90;;;;;;5053609;28;20037;-76
2023/10/02 06:51:05;;;;;;;25.45;14.13;;;16.30;99.90;;;;;;5053738;28;20040;-77
2023/10/02 06:53:31;;;;;;;24.33;13.57;;;16.40;99.90;;;;;;5036607;28;20045;-77
2023/10/02 06:56:06;;;;;;;26.35;14.30;;;16.40;99.90;;;;;;5053600;28;20404;-77
2023/10/02 06:58:45;;;;;;;25.13;14.10;;;16.40;99.90;;;;;;5036887;28;20040;-77
2023/10/02 07:01:11;;;;;;;25.23;14.45;;;16.40;99.90;;;;;;5053679;28;20401;-77
2023/10/02 07:03:39;;;;;;;26.95;15.15;;;16.50;99.90;;;;;;5053256;28;20029;-78
2023/10/02 07:06:08;;;;;;;26.00;14.45;;;16.50;99.90;;;;;;5052837;28;20625;-77
2023/10/02 07:08:36;;;;;;;25.10;14.68;;;16.50;99.90;;;;;;5053071;28;20052;-77
2023/10/02 07:11:10;;;;;;;25.02;13.73;;;16.60;99.90;;;;;;5036668;28;20048;-77
2023/10/02 07:13:50;;;;;;;24.13;13.63;;;16.70;99.90;;;;;;5053414;28;20102;-77
2023/10/02 07:16:19;;;;;;;23.70;13.90;;;16.70;99.90;;;;;;5053092;28;20033;-77
2023/10/02 07:18:49;;;;;;;25.13;14.75;;;16.80;99.90;;;;;;5052942;28;20091;-77
2023/10/02 07:21:19;;;;;;;25.10;14.60;;;16.90;99.90;;;;;;5035281;28;20451;-78
2023/10/02 07:23:45;;;;;;;27.80;15.60;;;16.90;99.90;;;;;;5052472;28;20049;-77
2023/10/02 07:26:17;;;;;;;26.20;14.48;;;17.00;99.90;;;;;;5053365;28;20066;-76
2023/10/02 07:28:51;;;;;;;26.88;14.63;;;17.10;99.90;;;;;;5052575;28;20056;-76
2023/10/02 07:31:20;;;;;;;27.80;15.27;;;17.20;99.90;;;;;;5053167;28;20048;-77
2023/10/02 07:33:46;;;;;;;26.20;14.82;;;17.30;99.90;;;;;;5052515;28;20528;-76
2023/10/02 07:36:15;;;;;;;27.45;15.25;;;17.50;99.90;;;;;;5052565;28;20071;-77
2023/10/02 07:38:42;;;;;;;25.48;14.93;;;17.50;99.90;;;;;;5052510;28;20468;-76
2023/10/02 07:41:23;;;;;;;24.90;14.45;;;17.60;99.90;;;;;;5052778;28;20459;-76
2023/10/02 07:43:51;;;;;;;30.17;15.20;;;17.80;99.90;;;;;;5053047;28;20057;-78
2023/10/02 07:46:18;;;;;;;24.30;15.00;;;17.90;99.90;;;;;;5052117;28;20047;-77
2023/10/02 07:48:56;;;;;;;26.42;15.30;;;18.00;99.90;;;;;;5052346;28;20124;-78
2023/10/02 07:51:30;;;;;;;26.60;15.52;;;18.10;99.90;;;;;;5053385;28;20076;-77
2023/10/02 07:53:57;;;;;;;25.10;14.90;;;18.10;99.90;;;;;;5036350;28;20515;-77
2023/10/02 07:56:23;;;;;;;26.98;15.25;;;18.20;99.90;;;;;;5036454;28;20128;-77
2023/10/02 07:58:55;;;;;;;26.33;15.23;;;18.30;99.90;;;;;;5052261;28;20079;-77
2023/10/02 08:01:27;;;;;;;25.23;14.77;;;18.30;99.90;;;;;;5053309;28;20048;-77
2023/10/02 08:03:55;;;;;;;27.00;15.85;;;18.40;99.90;;;;;;5036614;28;20048;-77
2023/10/02 08:09:35;;;;;;;26.52;15.30;;;18.60;99.90;;;;;;5052383;28;20049;-78
2023/10/02 08:11:50;;;;;;;25.55;15.45;;;18.60;99.90;;;;;;5052103;28;20053;-77
2023/10/02 08:14:37;;;;;;;26.40;15.25;;;18.60;99.90;;;;;;5051873;28;20043;-77
2023/10/02 08:17:27;;;;;;;27.48;14.25;;;18.70;99.90;;;;;;5035528;28;20040;-77
2023/10/02 08:19:54;;;;;;;27.63;14.65;;;18.70;99.90;;;;;;5052179;28;20041;-77
2023/10/02 08:22:36;;;;;;;29.80;16.17;;;18.80;99.90;;;;;;5051820;28;20033;-77
2023/10/02 08:25:03;;;;;;;27.02;15.90;;;18.80;99.90;;;;;;5051139;28;20098;-77
2023/10/02 08:27:32;;;;;;;31.65;16.70;;;18.80;99.90;;;;;;5052468;28;20131;-77
2023/10/02 08:30:00;;;;;;;28.25;16.10;;;18.80;99.90;;;;;;5035253;28;20055;-77
2023/10/02 08:32:28;;;;;;;27.10;16.27;;;18.80;99.90;;;;;;5051761;28;20073;-76
2023/10/02 08:34:55;;;;;;;27.20;16.05;;;18.90;99.90;;;;;;5051820;28;20175;-77
2023/10/02 08:37:20;;;;;;;30.40;16.52;;;18.90;99.90;;;;;;5051533;28;20518;-76
2023/10/02 08:39:46;;;;;;;31.70;16.85;;;19.10;99.90;;;;;;5034746;28;20041;-77
2023/10/02 08:42:11;;;;;;;30.70;16.70;;;19.20;99.90;;;;;;5051131;28;20416;-77
2023/10/02 08:44:40;;;;;;;30.45;16.70;;;19.40;99.90;;;;;;5053447;28;20055;-77
2023/10/02 08:47:12;;;;;;;34.80;18.02;;;19.50;99.90;;;;;;5051206;28;20065;-76
2023/10/02 08:49:41;;;;;;;32.33;18.05;;;19.60;99.90;;;;;;5052050;28;20379;-77
2023/10/02 08:52:13;;;;;;;31.70;17.65;;;19.60;99.90;;;;;;5051486;28;20033;-77
2023/10/02 08:54:40;;;;;;;30.65;16.20;;;19.70;99.90;;;;;;5052355;28;20052;-77
2023/10/02 08:57:12;;;;;;;31.70;16.48;;;19.60;99.90;;;;;;5051911;28;20507;-76
2023/10/02 08:59:41;;;;;;;29.83;16.27;;;19.50;99.90;;;;;;5052571;28;20033;-77
2023/10/02 09:02:16;;;;;;;30.77;17.60;;;19.50;99.90;;;;;;5035401;28;20098;-77
2023/10/02 09:05:06;;;;;;;29.20;17.33;;;19.40;99.90;;;;;;5051454;28;20047;-77
2023/10/02 09:07:44;;;;;;;32.55;17.42;;;19.50;99.90;;;;;;5051905;28;20500;-77
2023/10/02 09:10:28;;;;;;;30.67;16.70;;;19.50;99.90;;;;;;5034568;28;20044;-77
2023/10/02 09:13:17;;;;;;;32.03;17.70;;;19.60;99.90;;;;;;5050628;28;20040;-77
2023/10/02 09:15:48;;;;;;;33.40;18.35;;;19.80;99.90;;;;;;5034241;28;20065;-77
2023/10/02 09:18:35;;;;;;;34.65;18.90;;;19.90;99.90;;;;;;5034690;28;20044;-78
2023/10/02 09:21:16;;;;;;;33.28;16.30;;;20.10;99.90;;;;;;5051918;28;20037;-78
2023/10/02 09:23:51;;;;;;;30.52;17.17;;;20.20;99.90;;;;;;5051192;28;20049;-77
2023/10/02 09:26:21;;;;;;;34.05;17.15;;;20.30;99.90;;;;;;5051023;28;20045;-78
2023/10/02 09:29:00;;;;;;;27.90;16.08;;;20.40;99.90;;;;;;5051116;28;20531;-77
2023/10/02 09:31:35;;;;;;;28.92;16.38;;;20.60;99.90;;;;;;5052056;28;20155;-77
2023/10/02 09:34:10;;;;;;;29.23;16.50;;;20.70;99.90;;;;;;5031395;28;20138;-77
2023/10/02 09:36:51;;;;;;;30.20;16.77;;;20.80;99.90;;;;;;5040574;28;20037;-77
2023/10/02 09:39:36;;;;;;;31.40;17.27;;;20.90;99.90;;;;;;5051477;28;20043;-77
2023/10/02 09:42:06;;;;;;;23.10;14.88;;;20.80;99.90;;;;;;5051399;28;20595;-77
2023/10/02 09:44:42;;;;;;;27.08;16.48;;;20.70;99.90;;;;;;5051585;28;20048;-78
2023/10/02 09:47:09;;;;;;;31.13;16.05;;;20.60;99.90;;;;;;5034098;28;20041;-77
2023/10/02 09:49:48;;;;;;;29.00;16.10;;;20.50;99.90;;;;;;5033944;28;20047;-78
2023/10/02 09:52:23;;;;;;;28.10;16.15;;;20.40;99.90;;;;;;5050943;28;20116;-77
2023/10/02 09:55:04;;;;;;;32.33;16.80;;;20.40;99.90;;;;;;5052047;28;20041;-78
2023/10/02 09:57:57;;;;;;;30.20;16.13;;;20.40;99.90;;;;;;5034861;28;20440;-77
2023/10/02 10:00:34;;;;;;;31.65;16.58;;;20.50;99.90;;;;;;5034038;28;20412;-77
2023/10/02 10:03:24;;;;;;;29.23;16.90;;;20.50;99.90;;;;;;5052023;28;20139;-76
2023/10/02 10:06:16;;;;;;;31.63;16.30;;;20.70;99.90;;;;;;5051729;28;20045;-77
2023/10/02 10:12:21;;;;;;;29.40;17.70;;;20.80;99.90;;;;;;5052813;28;20048;-78
2023/10/02 10:14:38;;;;;;;39.05;18.02;;;20.80;99.90;;;;;;5052189;28;20072;-78
2023/10/02 10:17:15;;;;;;;32.67;18.95;;;20.70;99.90;;;;;;5053023;28;20033;-78
2023/10/02 10:20:08;;;;;;;31.08;18.40;;;20.70;99.90;;;;;;5036092;28;20044;-77
2023/10/02 10:22:40;;;;;;;32.63;18.17;;;20.70;99.90;;;;;;5037032;28;20063;-76
2023/10/02 10:27:38;;;;;;;29.48;18.50;;;20.90;99.90;;;;;;5052568;28;20044;-78
2023/10/02 10:30:20;;;;;;;31.55;17.67;;;20.90;99.90;;;;;;5052049;28;20045;-76
2023/10/02 10:32:46;;;;;;;33.78;19.30;;;20.90;99.90;;;;;;5052672;28;20496;-77
2023/10/02 10:35:30;;;;;;;33.38;19.08;;;21.00;99.90;;;;;;5051969;28;20045;-78
2023/10/02 10:37:56;;;;;;;;;;;21.20;99.90;;;;;;5034792;28;20037;-78
2023/10/02 10:40:44;;;;;;;31.50;18.20;;;21.20;99.90;;;;;;5035389;28;19921;-76
2023/10/02 10:43:18;;;;;;;35.78;19.23;;;21.30;99.90;;;;;;5052349;28;20037;-78
2023/10/02 10:45:48;;;;;;;37.13;19.58;;;21.40;99.90;;;;;;5052820;28;20071;-78
2023/10/02 10:48:24;;;;;;;39.50;20.50;;;21.50;99.90;;;;;;5052811;28;20094;-78
2023/10/02 10:50:59;;;;;;;31.85;18.30;;;21.40;99.90;;;;;;5050358;28;20040;-77
2023/10/02 10:53:29;;;;;;;31.58;18.08;;;21.40;99.90;;;;;;5052219;28;20041;-78
2023/10/02 10:56:16;;;;;;;28.58;16.90;;;21.30;99.90;;;;;;5051299;28;20045;-78
2023/10/02 10:58:46;;;;;;;28.60;16.35;;;21.30;99.90;;;;;;5052789;28;20041;-78
2023/10/02 11:01:16;;;;;;;30.55;16.80;;;21.30;99.90;;;;;;5052362;28;20119;-78
2023/10/02 11:03:44;;;;;;;29.55;16.92;;;21.40;99.90;;;;;;5054015;28;20112;-79
2023/10/02 11:06:11;;;;;;;29.50;17.02;;;21.50;99.90;;;;;;5052927;28;20042;-78
2023/10/02 11:08:38;;;;;;;28.88;16.02;;;21.60;99.90;;;;;;5052070;28;20504;-78
2023/10/02 11:11:11;;;;;;;27.95;16.58;;;21.60;99.90;;;;;;5052476;28;20083;-79
2023/10/02 11:13:58;;;;;;;26.38;16.42;;;21.70;99.90;;;;;;5036386;28;20033;-79
2023/10/02 11:16:37;;;;;;;26.75;16.88;;;21.60;99.90;;;;;;5052388;28;20405;-77
2023/10/02 11:19:11;;;;;;;28.02;16.42;;;21.60;99.90;;;;;;5052217;28;20032;-78
2023/10/02 11:21:45;;;;;;;;;;;21.60;99.90;;;;;;5055260;28;20045;-77
2023/10/02 11:24:23;;;;;;;29.65;17.30;;;21.60;99.90;;;;;;5056914;28;19959;-77
2023/10/02 11:26:53;;;;;;;34.17;19.38;;;21.60;99.90;;;;;;5037569;28;20497;-78
2023/10/02 11:29:23;;;;;;;31.38;18.35;;;21.60;99.90;;;;;;5054058;28;20098;-77
2023/10/02 11:32:19;;;;;;;31.35;17.92;;;21.60;99.90;;;;;;5055799;28;20497;-77
2023/10/02 11:34:46;;;;;;;30.70;18.40;;;21.70;99.90;;;;;;5055577;28;20647;-78
2023/10/02 11:37:13;;;;;;;29.48;17.75;;;21.80;99.90;;;;;;5038195;28;20083;-77
2023/10/02 11:39:38;;;;;;;31.75;18.25;;;21.80;99.90;;;;;;5037787;28;20047;-78
2023/10/02 11:42:06;;;;;;;36.15;20.55;;;22.00;99.90;;;;;;5056949;28;20120;-79
2023/10/02 11:44:32;;;;;;;32.97;20.55;;;22.20;99.90;;;;;;5056221;28;20048;-77
2023/10/02 11:46:59;;;;;;;33.42;19.80;;;22.30;99.90;;;;;;5038797;28;20041;-78
2023/10/02 11:49:27;;;;;;;30.33;19.67;;;22.40;99.90;;;;;;5055821;28;20527;-79
2023/10/02 11:51:52;;;;;;;29.50;19.13;;;22.50;99.90;;;;;;5057546;28;20071;-78
2023/10/02 11:54:18;;;;;;;31.13;19.40;;;22.60;99.90;;;;;;5056464;28;20045;-79
2023/10/02 11:56:46;;;;;;;31.77;18.75;;;22.50;99.90;;;;;;5055842;28;20032;-77
2023/10/02 11:59:15;;;;;;;28.20;18.92;;;22.50;99.90;;;;;;5054645;28;20044;-78
2023/10/02 12:01:43;;;;;;;30.00;18.75;;;22.40;99.90;;;;;;5054705;28;20400;-78
2023/10/02 12:04:08;;;;;;;29.25;18.27;;;22.40;99.90;;;;;;5054042;28;20037;-78
2023/10/02 12:06:38;;;;;;;31.98;18.88;;;22.40;99.90;;;;;;5055615;28;20424;-78
2023/10/02 12:09:04;;;;;;;30.15;19.42;;;22.40;99.90;;;;;;5053523;28;20072;-76
2023/10/02 12:11:33;;;;;;;31.27;19.35;;;22.30;99.90;;;;;;5054001;28;20048;-77
2023/10/02 12:13:58;;;;;;;31.52;19.73;;;22.30;99.90;;;;;;5054888;28;20052;-78
2023/10/02 12:16:24;;;;;;;33.38;19.50;;;22.30;99.90;;;;;;5054334;28;20037;-76
2023/10/02 12:18:50;;;;;;;29.98;18.77;;;22.20;99.90;;;;;;5056372;28;20044;-79
2023/10/02 12:21:17;;;;;;;30.77;19.08;;;22.10;99.90;;;;;;5054628;28;20033;-78
2023/10/02 12:23:43;;;;;;;27.00;17.02;;;22.10;99.90;;;;;;5053937;28;20051;-78
2023/10/02 12:26:20;;;;;;;29.25;18.10;;;22.00;99.90;;;;;;5055620;28;20203;-79
2023/10/02 12:28:47;;;;;;;29.42;16.67;;;22.10;99.90;;;;;;5053956;28;20041;-78
2023/10/02 12:31:19;;;;;;;30.00;17.58;;;22.10;99.90;;;;;;5054177;28;20040;-78
2023/10/02 12:33:46;;;;;;;28.00;17.27;;;22.20;99.90;;;;;;5052027;28;20240;-77
2023/10/02 12:36:19;;;;;;;28.40;18.70;;;22.10;99.90;;;;;;5053550;28;20095;-78
2023/10/02 12:38:46;;;;;;;30.98;18.63;;;22.10;99.90;;;;;;5054630;28;20040;-78
2023/10/02 12:41:12;;;;;;;29.33;17.90;;;22.10;99.90;;;;;;5053379;28;20044;-76
2023/10/02 12:43:38;;;;;;;33.78;18.67;;;22.00;99.90;;;;;;5053119;28;20037;-77
2023/10/02 12:46:06;;;;;;;29.85;17.80;;;22.00;99.90;;;;;;5054456;28;20566;-79
2023/10/02 12:48:33;;;;;;;31.95;18.42;;;22.00;99.90;;;;;;5053497;28;20047;-78
2023/10/02 12:51:04;;;;;;;29.45;18.77;;;22.10;99.90;;;;;;5035975;28;20496;-77
2023/10/02 12:53:30;;;;;;;33.13;18.67;;;22.20;99.90;;;;;;5053561;28;20041;-78
2023/10/02 12:55:55;;;;;;;25.75;16.90;;;22.20;99.90;;;;;;5053490;28;20133;-78
2023/10/02 12:58:21;;;;;;;29.10;17.50;;;22.30;99.90;;;;;;5052813;28;20045;-78
2023/10/02 13:00:48;;;;;;;29.95;17.88;;;22.30;99.90;;;;;;5053232;28;20037;-77
2023/10/02 13:03:13;;;;;;;29.42;19.15;;;22.40;99.90;;;;;;5053405;28;20373;-78
2023/10/02 13:05:41;;;;;;;28.65;17.20;;;22.40;99.90;;;;;;5052834;28;20051;-77
2023/10/02 13:08:07;;;;;;;25.70;16.55;;;22.50;99.90;;;;;;5052841;28;20080;-77
2023/10/02 13:10:32;;;;;;;27.90;17.35;;;22.50;99.90;;;;;;5052976;28;20049;-78
2023/10/02 13:12:58;;;;;;;29.08;16.73;;;22.60;99.90;;;;;;5053718;28;20118;-78
2023/10/02 13:15:23;;;;;;;30.02;18.00;;;22.70;99.90;;;;;;5052468;28;20064;-78
2023/10/02 13:17:49;;;;;;;26.80;17.08;;;22.70;99.90;;;;;;5036086;28;20124;-78
2023/10/02 13:20:14;;;;;;;32.10;17.85;;;22.70;99.90;;;;;;5053020;28;20393;-78
2023/10/02 13:22:40;;;;;;;25.92;17.05;;;22.70;99.90;;;;;;5054438;28;20037;-78